Station: Coonawarra  

  Atmospheric Gas Attenuation - ITU Rec 676-11   ----------------- dB/100km -----------------
Date Time Temp RH % AH g/m3 Dew Point Wind Direction Speed kph Gust kph Barometer mB Rainfall Since 9am 24GHz 47GHz 76GHz 122GHz 134GHz 241GHz
03/05 14:30 17 56 8.1 8.2 32 46 1007.9 0.2 18.4 24.0 36.1 94.7 87.8 301.8
03/05 14:20 17 57 8.25 8.4 28 35 1007.8 0.2 18.7 24.2 36.7 96.2 89.6 308.3
03/05 14:10 17.4 54 8 8 30 43 1007.8 0.2 18.2 23.8 35.6 93.2 86.1 295.9
03/05 14:00 17.6 52 7.8 7.6 30 44 1007.9 0.2 17.7 23.4 34.7 91.0 83.5 286.7
03/05 13:50 18 55 8.45 8.8 32 39 1007.9 0.2 19.1 24.3 37.0 97.0 91.0 313.1
03/05 13:40 17.7 55 8.3 8.6 35 41 1008 0.2 18.8 24.1 36.5 95.9 89.5 307.8
03/05 13:30 18.4 53 8.34 8.7 37 54 1008 0.2 18.8 24.0 36.4 95.5 89.2 306.8
03/05 13:20 18.3 55 8.6 9.1 28 43 1008.1 0.2 19.4 24.4 37.4 98.2 92.5 318.5
03/05 13:10 17.7 56 8.45 8.8 35 44 1008.1 0.2 19.1 24.4 37.1 97.4 91.3 314.3
03/05 13:00 17.8 56 8.5 8.9 32 44 1008.2 0.2 19.2 24.4 37.3 97.8 91.8 316.1
03/05 12:50 17.8 57 8.65 9.2 33 41 1008.3 0.2 19.5 24.7 37.8 99.3 93.7 322.7
03/05 12:40 17.2 60 8.79 9.4 28 37 1008.4 0.2 19.8 25.0 38.7 101.5 96.2 331.4
03/05 12:30 16.9 59 8.49 8.8 28 46 1008.4 0.2 19.2 24.7 37.7 98.8 92.8 319.3
03/05 12:20 17.6 57 8.55 9 32 43 1008.5 0.2 19.3 24.6 37.6 98.6 92.7 319.2
03/05 12:10 16.6 58 8.19 8.3 35 43 1008.8 0.2 18.6 24.3 36.7 96.2 89.4 307.5
03/05 12:00 16.4 60 8.37 8.6 28 46 1008.9 0.2 19.0 24.6 37.4 98.3 91.9 316.2
03/05 11:50 16.8 59 8.43 8.8 30 35 1009 0.2 19.1 24.6 37.5 98.4 92.2 317.3
03/05 11:40 17.2 60 8.79 9.4 33 37 1009.1 0.2 19.8 25.1 38.7 101.6 96.3 331.5
03/05 11:30 17.3 61 8.99 9.7 28 39 1009.1 0.2 20.3 25.4 39.4 103.5 98.7 340.0
03/05 11:20 16.6 62 8.76 9.3 32 43 1009.2 0.2 19.8 25.2 38.9 102.1 96.6 332.7
03/05 11:10 17 61 8.83 9.4 32 41 1009.2 0.2 19.9 25.2 38.9 102.3 97.0 334.2
03/05 11:00 16.2 61 8.41 8.7 32 44 1009.1 0.2 19.1 24.8 37.7 98.9 92.7 318.8
03/05 10:50 16.7 63 8.95 9.6 32 41 1009 0.2 20.2 25.5 39.5 103.9 98.9 340.8
03/05 10:40 16.4 67 9.35 10.3 30 32 1009 0.2 21.1 26.2 41.3 108.5 104.5 360.2
03/05 10:30 16.2 69 9.51 10.5 32 46 1009.1 0.2 21.4 26.5 42.0 110.5 106.9 368.5
03/05 10:20 16.1 71 9.73 10.8 30 39 1009.2 0.2 21.9 26.9 43.0 113.0 109.9 379.2
03/05 10:10 15.7 72 9.63 10.7 30 48 1009.2 0.2 21.7 26.9 42.8 112.5 109.2 376.5
03/05 10:00 15.4 75 9.85 11 32 44 1009.1 0.2 22.2 27.3 43.8 115.3 112.5 388.2
03/05 09:50 15.3 78 10.19 11.5 30 39 1009 0 22.9 27.9 45.3 119.2 117.3 404.8
03/05 09:40 15.2 78 10.12 11.4 30 39 1009.2 0 22.8 27.8 45.1 118.6 116.5 402.1
03/05 09:30 15 81 10.39 11.8 28 39 1009.1 0 23.4 28.3 46.3 121.9 120.5 416.0
03/05 09:20 14.5 82 10.2 11.5 30 39 1009.3 0 23.0 28.2 45.8 120.6 118.7 409.6
03/05 09:10 14.4 83 10.26 11.6 22 28 1009.4 0 23.1 28.3 46.1 121.4 119.7 413.0
03/05 09:00 14.2 83 10.14 11.4 28 39 1009.3 0 22.9 28.2 45.7 120.3 118.3 408.3
03/05 08:50 14 85 10.25 11.5 20 35 1009.2 14.4 23.1 28.4 46.3 121.9 120.1 414.6
03/05 08:40 13.5 86 10.06 11.2 24 37 1009.3 14.4 22.7 28.3 45.8 120.5 118.3 408.1
03/05 08:30 13.1 87 9.93 11 24 35 1009.5 14.4 22.5 28.2 45.5 119.7 117.1 403.9
03/05 08:20 12.7 88 9.8 10.8 28 35 1009.4 14.4 22.2 28.1 45.2 118.8 115.9 399.6
03/05 08:10 12.3 89 9.67 10.5 19 20 1009.2 14.4 22.0 28.0 44.8 117.9 114.7 395.2
03/05 08:00 12.2 89 9.61 10.4 20 30 1009.1 14.4 21.8 27.9 44.6 117.4 114.0 392.8
03/05 07:50 12.3 88 9.56 10.4 20 26 1009 14.4 21.7 27.8 44.4 116.7 113.1 389.8
03/05 07:40 12.3 89 9.67 10.5 20 28 1008.9 14.4 22.0 28.0 44.8 117.9 114.6 395.1
03/05 07:30 12.4 89 9.73 10.6 17 28 1008.8 14.4 22.1 28.0 45.0 118.4 115.3 397.5
03/05 07:20 12.4 90 9.83 10.8 17 26 1008.7 14.4 22.3 28.2 45.4 119.6 116.7 402.4
03/05 07:10 12.4 89 9.73 10.6 19 20 1008.7 14.4 22.1 28.0 45.0 118.4 115.3 397.5
03/05 07:00 12.3 91 9.88 10.9 15 24 1008.6 14.4 22.4 28.3 45.7 120.3 117.6 405.3
03/05 06:50 11.9 92 9.74 10.6 15 17 1008.6 14.4 22.1 28.2 45.3 119.3 116.2 400.5
03/05 06:40 12 92 9.81 10.7 17 20 1008.6 14.4 22.3 28.3 45.6 119.9 117.0 403.5
03/05 06:30 11.9 92 9.74 10.6 15 20 1008.6 14.4 22.1 28.2 45.3 119.3 116.2 400.5
03/05 06:20 11.8 92 9.68 10.5 13 17 1008.5 14.4 22.0 28.1 45.1 118.7 115.5 398.1
03/05 06:10 11.8 92 9.68 10.5 15 20 1008.5 14.4 22.0 28.1 45.1 118.7 115.5 398.1
03/05 06:00 11.8 92 9.68 10.5 13 19 1008.6 14.4 22.0 28.1 45.1 118.8 115.5 398.1
03/05 05:50 11.9 91 9.64 10.5 15 17 1008.6 14.4 21.9 28.0 44.9 118.1 114.8 395.6
03/05 05:40 12.1 91 9.76 10.7 15 17 1008.6 14.4 22.2 28.2 45.3 119.2 116.2 400.5
03/05 05:30 12.2 91 9.82 10.8 15 20 1008.6 14.4 22.3 28.2 45.5 119.7 116.9 402.9
03/05 05:20 12.1 91 9.76 10.7 13 15 1008.5 14.4 22.2 28.2 45.3 119.2 116.2 400.5
03/05 05:10 12.2 91 9.82 10.8 17 19 1008.6 14.4 22.3 28.2 45.5 119.7 116.9 402.9
03/05 05:00 12.3 91 9.88 10.9 15 20 1008.6 14.4 22.4 28.3 45.7 120.3 117.6 405.3
03/05 04:50 12.3 92 9.99 11 15 17 1008.6 14.4 22.7 28.5 46.2 121.5 119.1 410.8
03/05 04:40 12.3 92 9.99 11 15 19 1008.6 14.4 22.7 28.5 46.2 121.5 119.1 410.8
03/05 04:30 12.3 92 9.99 11 15 20 1008.6 14.4 22.7 28.5 46.2 121.5 119.1 410.8
03/05 04:20 12.2 92 9.93 10.9 15 17 1008.5 14.4 22.5 28.4 46.0 121.0 118.4 408.3
03/05 04:10 12.3 92 9.99 11 11 17 1008.4 14.4 22.7 28.5 46.2 121.5 119.1 410.7
03/05 04:00 12.4 91 9.94 11 13 17 1008.3 14.4 22.5 28.4 45.9 120.8 118.2 407.7
03/05 03:50 12.6 91 10.07 11.2 15 19 1008.4 14.4 22.8 28.5 46.3 121.9 119.7 413.0
03/05 03:40 12.7 91 10.13 11.3 15 19 1008.4 14.4 22.9 28.6 46.5 122.5 120.4 415.5
03/05 03:30 12.7 91 10.13 11.3 13 19 1008.4 14.4 22.9 28.6 46.5 122.5 120.4 415.5
03/05 03:20 12.9 91 10.26 11.5 11 13 1008.5 14.4 23.2 28.8 47.0 123.7 122.0 420.8
03/05 03:10 13 91 10.32 11.6 13 15 1008.6 14.4 23.3 28.8 47.2 124.2 122.7 423.3
03/05 03:00 13.1 93 10.61 12 13 19 1008.5 14.4 24.0 29.3 48.4 127.4 126.6 437.1
03/05 02:50 13.1 94 10.73 12.2 13 15 1008.6 14.4 24.2 29.5 48.9 128.8 128.3 443.1
03/05 02:40 13.2 95 10.91 12.4 13 15 1008.8 14.4 24.6 29.8 49.6 130.7 130.8 451.7
03/05 02:30 13.1 96 10.96 12.5 13 15 1008.9 14.4 24.7 29.9 49.9 131.5 131.7 454.8
03/05 02:20 13.2 96 11.02 12.6 13 15 1009.1 14.4 24.8 30.0 50.1 132.1 132.4 457.3
03/05 02:10 13.1 96 10.96 12.5 11 13 1009.1 14.4 24.7 30.0 49.9 131.5 131.7 454.9
03/05 02:00 13 96 10.89 12.4 11 17 1009.4 14.4 24.6 29.9 49.7 130.9 130.9 452.0
03/05 01:50 12.9 96 10.82 12.3 11 13 1009.4 14.4 24.4 29.8 49.5 130.3 130.1 449.1
03/05 01:40 12.6 96 10.62 12 9 11 1009.3 14.4 24.0 29.5 48.8 128.4 127.7 440.7
03/05 01:30 12.7 95 10.58 11.9 9 11 1009.4 14.4 23.9 29.4 48.5 127.8 126.9 438.2
03/05 01:20 12.7 95 10.58 11.9 11 13 1009.5 14.4 23.9 29.4 48.5 127.8 127.0 438.2
03/05 01:10 12.8 94 10.53 11.9 11 11 1009.3 14.4 23.8 29.3 48.2 127.0 126.1 435.1
03/05 01:00 12.9 94 10.6 12 9 13 1009.4 14.4 23.9 29.4 48.5 127.7 126.9 438.1
03/05 00:50 13 94 10.66 12.1 11 11 1009.7 14.4 24.1 29.5 48.7 128.3 127.6 440.6
03/05 00:40 13.2 93 10.68 12.1 9 9 1009.7 14.4 24.1 29.4 48.7 128.2 127.6 440.4
03/05 00:30 13.3 92 10.63 12 9 13 1009.8 14.4 24.0 29.3 48.4 127.4 126.7 437.4
03/05 00:20 13.4 92 10.7 12.1 9 11 1009.8 14.4 24.1 29.4 48.6 128.1 127.5 440.3
03/05 00:10 13.5 91 10.64 12.1 11 13 1010 14.4 24.0 29.3 48.3 127.2 126.5 436.8
03/05 00:00 13.7 92 10.89 12.4 13 17 1009.8 14.4 24.5 29.7 49.3 129.8 129.7 448.1
02/05 23:50 14.2 93 11.36 13.1 11 13 1009.7 14.4 25.5 30.3 51.0 134.4 135.6 468.6
02/05 23:40 14.5 94 11.69 13.5 9 11 1009.6 14.4 26.2 30.8 52.3 137.7 139.8 483.4
02/05 23:30 14.7 95 11.96 13.9 13 19 1009.8 14.4 26.8 31.2 53.3 140.6 143.4 495.9
02/05 23:20 14.8 95 12.03 14 15 20 1009.9 14.2 26.9 31.3 53.6 141.3 144.3 498.9
02/05 23:10 14.9 96 12.24 14.3 17 20 1010.2 14 27.4 31.6 54.5 143.6 147.2 509.1
02/05 23:00 15 96 12.31 14.4 13 19 1009.8 13.8 27.5 31.7 54.7 144.2 148.0 511.9
02/05 22:50 14.9 96 12.24 14.3 13 17 1009.9 13.6 27.4 31.6 54.5 143.6 147.1 509.0
02/05 22:40 15 97 12.44 14.5 15 17 1010.2 13.6 27.8 32.0 55.3 145.8 149.9 518.7
02/05 22:30 15 97 12.44 14.5 9 13 1010 13.6 27.8 32.0 55.3 145.8 149.9 518.6
02/05 22:20 15 97 12.44 14.5 11 13 1010.1 13.2 27.8 32.0 55.3 145.8 149.9 518.7
02/05 22:10 15 97 12.44 14.5 11 13 1010.2 13.2 27.8 32.0 55.3 145.8 149.9 518.7
02/05 22:00 15 97 12.44 14.5 9 15 1010.1 13.2 27.8 32.0 55.3 145.8 149.9 518.7

Last Refresh: 03-May-2026 14:34:35

Bureau of Meteorology